메인 페이지
METAR-TAF:

METAR-TAF

공항 :

Yüksekova, 터키

위도: 37-33-06N, 경도: 44-14-01E, 고도: 1950m

현재 날씨관측

예보는 1 시간 12분 전, 07:50시(UTC)에 발표되었습니다.
여러 방향의 바람 8kt, 순간 최대 풍속 19kt
온도 20°C
습도 32%
기압 1016 hPa
시정 10km 이상
고도 4000ft 상공 구름 조금

METAR: LTCW 100750Z VRB08G19KT 9999 FEW040 20/03 Q1016

시각: 12:02 (09:02 UTC)

예보

예보는 1 시간 22분 전, 07:40시(UTC)에 발표되었습니다.
예보 대상 시간: 10일 09시부터 10일 18시까지 (UTC)
남서14kt, 순간 최대 풍속 30kt
시정 10km 이상
고도 4000ft 상공 구름 조금
전환 중
10일 15시부터 10일 17시까지 (UTC)
8kt

TAF: LTCW 100740Z 1009/1018 22014G30KT 9999 FEW040 BECMG 1015/1017 09008KT

4,000개 이상의 공항 관측 자료 및 예보 (METAR 및 TAF 보고).

지도상에서 검색 가능한 기상관측소가 노란 점과 빨간 점으로 표시되어 있습니다.

기상관측소 명을 보려면 표시 위로 마우스를 이동하세요.

날씨 관측과 예보를 보려면 클릭하세요.

지도 변경 : 확대하려면 엑스 표시가 있는 녹색 버튼, 축소하려면 빼기 표시가 있는 녹색 버튼, 다음 페이지의 지도를 보려면 녹색 화살표를 클릭하세요.


METAR-TAF: